CheckWX is a tool to help pilots better visualize weather data.  It is not intended as a substitute for an official pre-flight weather briefing.

09:58:10 UTC

GVSV TAF
São Pedro Airport
São Pedro, Cape Verde
TAF GVSV 290500Z 2906/3012 06012KT 9999 FEW016 TEMPO 2909/2914 06022KT PROB40 TEMPO 2914/2919 06020G30KT CAVOK

Jan-29@
06:00 UTC

Jan-29 @ 06:00 UTC

Jan-30@
12:00 UTC

Jan-30 @ 12:00 UTC

TAF GVSV 290500Z 2906/3012 06012KT 9999 FEW016
Wind
  • 060° at 12 KTS
Cloud Levels
  • Few at 1,600' AGL

Jan-29@
09:00 UTC

Jan-29 @ 09:00 UTC

Jan-29@
14:00 UTC

Jan-29 @ 14:00 UTC

TEMPO 2909/2914 06022KT

Temporary

Temporary Changes expected for less than half the time period

Wind
  • 060° at 22 KTS

Jan-29@
14:00 UTC

Jan-29 @ 14:00 UTC

Jan-29@
19:00 UTC

Jan-29 @ 19:00 UTC

PROB40 TEMPO 2914/2919 06020G30KT CAVOK

Temporary - 40% Likelihood

Temporary - 40% Likelihood during this time.

Wind
  • 060° at 20 KTS
  • {Gusting to 30 KTS
Conditions
No significant weather
Cloud Levels
  • No significant clouds